Time;durP1;ratioP1;P1;durP2;ratioP2;P2;SDS_P1;SDS_P2;PMS_P1;PMS_P2;Temp;Humidity;BMP_temperature;BMP_pressure;BME280_temperature;BME280_humidity;BME280_pressure;Samples;Min_cycle;Max_cycle;Signal;HPM_P1;HPM_P2
2021/04/22 00:00:13;;;;;;;5.95;0.47;;;3.10;99.90;;;;;;5147333;27;20063;-77
2021/04/22 00:02:40;;;;;;;13.45;0.63;;;3.10;99.90;;;;;;5129299;27;20063;-77
2021/04/22 00:05:28;;;;;;;6.50;0.80;;;3.10;99.90;;;;;;5128922;27;20387;-77
2021/04/22 00:07:55;;;;;;;8.25;0.40;;;3.00;99.90;;;;;;5026640;28;20042;-77
2021/04/22 00:10:25;;;;;;;6.75;0.60;;;3.00;99.90;;;;;;5027298;28;20041;-77
2021/04/22 00:12:51;;;;;;;7.65;0.73;;;3.00;99.90;;;;;;5010966;28;20557;-77
2021/04/22 00:15:20;;;;;;;8.73;0.70;;;3.00;99.90;;;;;;5028256;28;20097;-77
2021/04/22 00:17:47;;;;;;;10.02;0.40;;;3.00;99.90;;;;;;5028752;28;20033;-77
2021/04/22 00:20:15;;;;;;;9.77;0.45;;;3.00;99.90;;;;;;5027441;28;20050;-77
2021/04/22 00:22:41;;;;;;;8.15;0.50;;;3.00;99.90;;;;;;5010458;28;20032;-77
2021/04/22 00:25:08;;;;;;;9.60;1.10;;;3.00;99.90;;;;;;5043414;28;20048;-77
2021/04/22 00:27:34;;;;;;;11.15;0.93;;;2.90;99.90;;;;;;5043065;28;20445;-77
2021/04/22 00:30:01;;;;;;;4.47;0.50;;;2.80;99.90;;;;;;5010459;28;20136;-77
2021/04/22 00:32:26;;;;;;;7.80;0.40;;;2.70;99.90;;;;;;5026759;28;20045;-77
2021/04/22 00:34:52;;;;;;;7.50;0.63;;;2.70;99.90;;;;;;5043367;28;20087;-77
2021/04/22 00:37:18;;;;;;;6.47;0.43;;;2.70;99.90;;;;;;5045203;28;20044;-77
2021/04/22 00:39:43;;;;;;;6.85;0.77;;;2.70;99.90;;;;;;5063051;28;20049;-77
2021/04/22 00:42:09;;;;;;;8.25;0.70;;;2.70;99.90;;;;;;5043368;28;20044;-77
2021/04/22 00:44:36;;;;;;;5.95;0.55;;;2.70;99.90;;;;;;5061172;27;20031;-77
2021/04/22 00:47:01;;;;;;;9.43;0.60;;;2.70;99.90;;;;;;5124065;28;20041;-77
2021/04/22 00:49:27;;;;;;;6.18;0.60;;;2.70;99.90;;;;;;5108097;28;20063;-77
2021/04/22 00:51:54;;;;;;;3.15;0.40;;;2.60;99.90;;;;;;5130940;27;20094;-77
2021/04/22 00:54:20;;;;;;;5.68;0.40;;;2.60;99.90;;;;;;5148735;27;20031;-77
2021/04/22 00:56:48;;;;;;;9.02;0.50;;;2.60;99.90;;;;;;5148000;27;20026;-77
2021/04/22 00:59:14;;;;;;;6.57;0.50;;;2.40;99.90;;;;;;5131712;27;20063;-77
2021/04/22 01:01:39;;;;;;;5.82;0.65;;;2.40;99.90;;;;;;5167607;27;20026;-77
2021/04/22 01:04:05;;;;;;;9.27;1.60;;;2.50;99.90;;;;;;5167394;27;20027;-77
2021/04/22 01:06:32;;;;;;;5.50;0.50;;;2.40;99.90;;;;;;5147840;27;20031;-77
2021/04/22 01:09:05;;;;;;;10.85;0.68;;;2.50;99.90;;;;;;5148403;27;20038;-77
2021/04/22 01:11:31;;;;;;;4.60;0.50;;;2.40;99.90;;;;;;5131981;27;20023;-77
2021/04/22 01:13:57;;;;;;;8.00;0.70;;;2.30;99.90;;;;;;5148742;27;20027;-77
2021/04/22 01:16:23;;;;;;;4.72;0.60;;;2.40;99.90;;;;;;5148661;27;20091;-77
2021/04/22 01:18:48;;;;;;;6.80;0.45;;;2.30;99.90;;;;;;5147550;27;20023;-77
2021/04/22 01:21:27;;;;;;;6.95;0.40;;;2.30;99.90;;;;;;5148809;27;20098;-77
2021/04/22 01:23:53;;;;;;;9.00;0.50;;;2.30;99.90;;;;;;5167142;27;20034;-77
2021/04/22 01:26:22;;;;;;;10.98;1.60;;;2.20;99.90;;;;;;5167018;27;20030;-77
2021/04/22 01:28:49;;;;;;;9.10;0.73;;;2.40;99.90;;;;;;5147197;27;20345;-77
2021/04/22 01:31:14;;;;;;;5.63;0.50;;;2.30;99.90;;;;;;5148794;27;20027;-77
2021/04/22 01:33:41;;;;;;;8.95;0.77;;;2.30;99.90;;;;;;5160648;27;20023;-77
2021/04/22 01:36:07;;;;;;;5.10;0.55;;;2.10;99.90;;;;;;5127747;28;20027;-77
2021/04/22 01:38:34;;;;;;;9.18;0.80;;;2.10;99.90;;;;;;5127227;28;20100;-77
2021/04/22 01:41:00;;;;;;;7.22;0.98;;;2.20;99.90;;;;;;5127824;28;20086;-77
2021/04/22 01:43:27;;;;;;;2.97;0.75;;;2.00;99.90;;;;;;5127795;28;20034;-77
2021/04/22 01:45:54;;;;;;;6.00;0.60;;;1.90;99.90;;;;;;5146098;28;20031;-77
2021/04/22 01:48:21;;;;;;;7.97;0.50;;;1.90;99.90;;;;;;5145668;27;20483;-77
2021/04/22 01:50:47;;;;;;;8.40;0.55;;;1.90;99.90;;;;;;5131408;27;20031;-77
2021/04/22 01:53:13;;;;;;;5.70;0.50;;;1.90;99.90;;;;;;5149990;27;20052;-77
2021/04/22 01:55:45;;;;;;;4.57;0.40;;;1.90;99.90;;;;;;5131756;27;20091;-77
2021/04/22 01:58:15;;;;;;;8.68;0.50;;;1.80;99.90;;;;;;5110593;28;20365;-77
2021/04/22 02:00:59;;;;;;;7.07;0.70;;;1.80;99.90;;;;;;5111283;28;20071;-77
2021/04/22 02:03:27;;;;;;;6.90;0.50;;;1.80;99.90;;;;;;5111219;28;20035;-77
2021/04/22 02:05:53;;;;;;;6.10;1.05;;;1.80;99.90;;;;;;5119205;27;20063;-77
2021/04/22 02:08:18;;;;;;;4.88;0.50;;;1.80;99.90;;;;;;5148149;27;20026;-77
2021/04/22 02:10:45;;;;;;;12.20;0.80;;;1.80;99.90;;;;;;5152411;27;20085;-77
2021/04/22 02:13:13;;;;;;;6.07;0.50;;;1.90;99.90;;;;;;5146108;27;20385;-77
2021/04/22 02:15:40;;;;;;;5.60;0.50;;;1.90;99.90;;;;;;5151800;27;20037;-77
2021/04/22 02:18:06;;;;;;;6.22;0.60;;;1.80;99.90;;;;;;5151456;27;20188;-77
2021/04/22 02:20:32;;;;;;;7.57;0.60;;;1.70;99.90;;;;;;5151990;27;20126;-77
2021/04/22 02:22:58;;;;;;;6.57;0.50;;;1.60;99.90;;;;;;5170453;27;20031;-77
2021/04/22 02:25:26;;;;;;;6.78;0.75;;;1.60;99.90;;;;;;5138155;27;20113;-77
2021/04/22 02:27:52;;;;;;;8.45;0.90;;;1.50;99.90;;;;;;5151211;27;20027;-77
2021/04/22 02:30:26;;;;;;;6.43;0.40;;;1.50;99.90;;;;;;5170385;27;20106;-77
2021/04/22 02:32:53;;;;;;;3.65;0.50;;;1.40;99.90;;;;;;5170240;27;20035;-77
2021/04/22 02:35:20;;;;;;;2.60;0.40;;;1.40;99.90;;;;;;5145321;27;20028;-77
2021/04/22 02:37:46;;;;;;;5.05;0.50;;;1.30;99.90;;;;;;5099168;28;20070;-77
2021/04/22 02:40:15;;;;;;;5.65;0.60;;;1.40;99.90;;;;;;5113403;27;20039;-78
2021/04/22 02:42:41;;;;;;;8.43;0.70;;;1.50;99.90;;;;;;5130696;27;20023;-77
2021/04/22 02:45:13;;;;;;;6.70;0.75;;;1.60;99.90;;;;;;5130601;27;20033;-77
2021/04/22 02:47:39;;;;;;;9.13;0.63;;;1.60;99.90;;;;;;5130026;27;20094;-78
2021/04/22 02:50:07;;;;;;;4.75;0.57;;;1.70;99.90;;;;;;5128920;27;20038;-77
2021/04/22 02:52:33;;;;;;;8.60;0.80;;;1.60;99.90;;;;;;5128513;28;20077;-77
2021/04/22 02:54:59;;;;;;;4.57;0.50;;;1.70;99.90;;;;;;5110536;27;20032;-77
2021/04/22 02:57:24;;;;;;;4.95;0.55;;;1.80;99.90;;;;;;5129870;27;20076;-77
2021/04/22 02:59:50;;;;;;;5.32;0.50;;;1.80;99.90;;;;;;5148799;27;20039;-77
2021/04/22 03:02:15;;;;;;;5.57;0.73;;;1.90;99.90;;;;;;5127578;27;20027;-77
2021/04/22 03:04:41;;;;;;;8.45;0.80;;;1.90;99.90;;;;;;5093249;28;20118;-77
2021/04/22 03:07:07;;;;;;;6.82;0.70;;;1.90;99.90;;;;;;5124466;28;20058;-77
2021/04/22 03:09:32;;;;;;;7.32;0.77;;;1.80;99.90;;;;;;5129965;27;20450;-77
2021/04/22 03:11:58;;;;;;;4.75;0.82;;;1.70;99.90;;;;;;5130394;27;20452;-77
2021/04/22 03:14:23;;;;;;;8.35;0.52;;;1.60;99.90;;;;;;5111093;28;20027;-77
2021/04/22 03:16:49;;;;;;;6.60;0.77;;;1.70;99.90;;;;;;5106545;27;20462;-77
2021/04/22 03:19:15;;;;;;;11.23;0.65;;;1.70;99.90;;;;;;5148504;27;20031;-78
2021/04/22 03:21:40;;;;;;;6.45;0.77;;;1.60;99.90;;;;;;5129993;27;20030;-77
2021/04/22 03:24:07;;;;;;;8.25;0.75;;;1.60;99.90;;;;;;5113156;27;20030;-77
2021/04/22 03:26:32;;;;;;;7.93;0.63;;;1.60;99.90;;;;;;5109000;28;20024;-78
2021/04/22 03:28:58;;;;;;;10.90;0.60;;;1.60;99.90;;;;;;5147049;27;20050;-77
2021/04/22 03:31:25;;;;;;;7.18;0.88;;;1.60;99.90;;;;;;5109185;28;20058;-77
2021/04/22 03:33:50;;;;;;;9.50;0.80;;;1.60;99.90;;;;;;5092905;28;20024;-77
2021/04/22 03:36:16;;;;;;;8.90;0.50;;;1.60;99.90;;;;;;5139029;27;20059;-77
2021/04/22 03:38:42;;;;;;;7.10;0.60;;;1.40;99.90;;;;;;5147553;27;20035;-76
2021/04/22 03:41:08;;;;;;;8.23;0.57;;;1.30;99.90;;;;;;5129833;27;20534;-77
2021/04/22 03:43:33;;;;;;;7.10;0.57;;;1.40;99.90;;;;;;5147622;27;20478;-77
2021/04/22 03:45:59;;;;;;;3.92;0.50;;;1.50;99.90;;;;;;5147712;27;20035;-77
2021/04/22 03:48:24;;;;;;;5.05;0.60;;;1.50;99.90;;;;;;5129154;27;20078;-77
2021/04/22 03:50:50;;;;;;;9.07;0.60;;;1.50;99.90;;;;;;5148013;27;20028;-77
2021/04/22 03:53:16;;;;;;;5.28;0.40;;;1.50;99.90;;;;;;5112095;27;20024;-77
2021/04/22 03:55:41;;;;;;;9.30;0.77;;;1.70;99.90;;;;;;5109438;28;20040;-77
2021/04/22 03:58:07;;;;;;;7.70;0.55;;;1.80;99.90;;;;;;5120929;27;20019;-77
2021/04/22 04:00:33;;;;;;;5.53;0.40;;;1.80;99.90;;;;;;5112394;27;20475;-78
2021/04/22 04:02:58;;;;;;;9.48;0.80;;;1.90;99.90;;;;;;5147834;27;20039;-77
2021/04/22 04:05:44;;;;;;;7.00;1.15;;;2.00;99.90;;;;;;5125347;28;20023;-78
2021/04/22 04:08:10;;;;;;;12.15;0.70;;;2.00;99.90;;;;;;5011103;28;20044;-77
2021/04/22 04:10:35;;;;;;;2.03;0.40;;;1.90;99.90;;;;;;5043931;28;20037;-77
2021/04/22 04:13:01;;;;;;;4.97;0.75;;;1.90;99.90;;;;;;5027541;28;20572;-77
2021/04/22 04:15:27;;;;;;;5.57;0.60;;;1.90;99.90;;;;;;5043739;28;20061;-78
2021/04/22 04:17:52;;;;;;;5.60;0.40;;;1.90;99.90;;;;;;5023203;28;20421;-77
2021/04/22 04:20:18;;;;;;;5.85;0.45;;;1.80;99.90;;;;;;5043714;28;20054;-77
2021/04/22 04:22:47;;;;;;;7.90;0.50;;;1.90;99.90;;;;;;5040445;28;20079;-79
2021/04/22 04:25:13;;;;;;;6.85;0.70;;;1.90;99.90;;;;;;5026479;28;20037;-78
2021/04/22 04:27:39;;;;;;;6.43;0.50;;;1.80;99.90;;;;;;5043071;28;20033;-79
2021/04/22 04:30:07;;;;;;;4.53;0.52;;;1.90;99.90;;;;;;5046090;28;20060;-79
2021/04/22 04:32:33;;;;;;;5.05;0.52;;;1.90;99.90;;;;;;5045912;28;20041;-78
2021/04/22 04:34:58;;;;;;;4.25;0.47;;;1.90;99.90;;;;;;5026404;28;20069;-78
2021/04/22 04:37:24;;;;;;;4.10;0.40;;;1.90;99.90;;;;;;5006224;28;20054;-79
2021/04/22 04:39:50;;;;;;;4.22;0.40;;;2.00;99.90;;;;;;5034986;28;20056;-78
2021/04/22 04:42:17;;;;;;;5.70;0.50;;;2.00;99.90;;;;;;5022945;28;20041;-79
2021/04/22 04:44:42;;;;;;;5.53;0.47;;;2.10;99.90;;;;;;5070094;27;20049;-79
2021/04/22 04:47:08;;;;;;;5.18;0.50;;;2.20;99.90;;;;;;5127096;27;20067;-79
2021/04/22 04:49:34;;;;;;;5.95;0.50;;;2.20;99.90;;;;;;5127959;27;20076;-79
2021/04/22 04:51:59;;;;;;;5.03;0.40;;;2.20;99.90;;;;;;5110621;27;20084;-79
2021/04/22 04:54:25;;;;;;;5.43;0.45;;;2.20;99.90;;;;;;5128027;27;20070;-78
2021/04/22 04:56:51;;;;;;;4.93;0.73;;;2.30;99.90;;;;;;5125113;27;20096;-79
2021/04/22 04:59:17;;;;;;;7.28;0.50;;;2.30;99.90;;;;;;5107281;28;20027;-78
2021/04/22 05:01:42;;;;;;;8.70;0.50;;;2.30;99.90;;;;;;5127329;27;20047;-79
2021/04/22 05:04:08;;;;;;;7.05;0.40;;;2.50;99.90;;;;;;5148570;27;20022;-78
2021/04/22 05:06:34;;;;;;;7.50;0.40;;;2.50;99.90;;;;;;5130655;27;20059;-79
2021/04/22 05:08:59;;;;;;;3.50;0.70;;;2.50;99.90;;;;;;5148032;27;20019;-78
2021/04/22 05:11:25;;;;;;;5.10;0.75;;;2.60;99.90;;;;;;5097566;28;20073;-79
2021/04/22 05:13:50;;;;;;;3.85;0.50;;;2.70;99.90;;;;;;5112314;28;20102;-78
2021/04/22 05:16:18;;;;;;;5.05;0.60;;;2.80;99.90;;;;;;5114091;28;20043;-78
2021/04/22 05:18:43;;;;;;;6.07;0.50;;;2.80;99.90;;;;;;5113871;28;20027;-78
2021/04/22 05:21:09;;;;;;;6.72;0.60;;;2.90;99.90;;;;;;5106078;28;20071;-78
2021/04/22 05:23:34;;;;;;;3.35;0.40;;;2.90;99.90;;;;;;5115229;27;20032;-78
2021/04/22 05:26:00;;;;;;;2.75;0.52;;;3.00;99.90;;;;;;5107141;28;20028;-79
2021/04/22 05:28:26;;;;;;;4.55;0.50;;;3.10;99.90;;;;;;5100506;27;20437;-79
2021/04/22 05:30:51;;;;;;;3.50;0.60;;;3.30;99.90;;;;;;5118239;28;20050;-78
2021/04/22 05:33:17;;;;;;;6.85;0.50;;;3.40;99.90;;;;;;5117925;27;20015;-78
2021/04/22 05:35:44;;;;;;;7.78;0.50;;;3.40;99.90;;;;;;5118530;27;20023;-78
2021/04/22 05:38:09;;;;;;;8.73;0.57;;;3.50;99.90;;;;;;5118086;27;20023;-78
2021/04/22 05:40:36;;;;;;;8.50;0.85;;;3.60;99.90;;;;;;5115268;28;20095;-78
2021/04/22 05:43:02;;;;;;;7.38;0.60;;;3.70;99.90;;;;;;5097890;28;20036;-78
2021/04/22 05:45:28;;;;;;;6.00;1.15;;;3.80;99.90;;;;;;5111359;27;20051;-78
2021/04/22 05:47:54;;;;;;;12.55;1.08;;;3.90;99.90;;;;;;5118661;27;20038;-79
2021/04/22 05:50:21;;;;;;;7.82;0.60;;;4.00;99.90;;;;;;5118853;27;20049;-79
2021/04/22 05:52:47;;;;;;;6.18;0.85;;;4.10;99.90;;;;;;5115138;28;20024;-79
2021/04/22 05:55:14;;;;;;;7.75;0.50;;;4.10;99.90;;;;;;5115975;27;20035;-78
2021/04/22 05:57:39;;;;;;;4.70;0.50;;;4.10;99.90;;;;;;5118332;27;20024;-79
2021/04/22 06:00:08;;;;;;;4.13;0.47;;;4.20;99.90;;;;;;5120587;27;20057;-78
2021/04/22 06:02:34;;;;;;;6.18;0.43;;;4.20;99.90;;;;;;5105252;28;20027;-79
2021/04/22 06:04:59;;;;;;;9.27;0.63;;;4.30;99.90;;;;;;5115365;28;20051;-78
2021/04/22 06:07:25;;;;;;;9.35;0.60;;;4.40;99.90;;;;;;5125223;22;20060;-79
2021/04/22 06:09:51;;;;;;;8.90;0.60;;;4.50;99.90;;;;;;5090293;28;20032;-77
2021/04/22 06:12:16;;;;;;;10.80;0.85;;;4.60;99.90;;;;;;5107292;28;20399;-78
2021/04/22 06:14:42;;;;;;;8.90;1.40;;;4.70;99.90;;;;;;5090335;28;20120;-78
2021/04/22 06:17:08;;;;;;;6.97;0.50;;;4.70;99.90;;;;;;5107233;28;20034;-78
2021/04/22 06:19:33;;;;;;;4.05;0.35;;;4.80;99.90;;;;;;5090073;28;20067;-78
2021/04/22 06:21:59;;;;;;;7.10;0.50;;;4.90;99.90;;;;;;5090037;28;20065;-78
2021/04/22 06:24:24;;;;;;;13.30;0.70;;;5.00;99.90;;;;;;5107307;28;20047;-77
2021/04/22 06:26:51;;;;;;;8.23;0.60;;;5.20;99.90;;;;;;5108494;28;20214;-77
2021/04/22 06:29:17;;;;;;;5.40;0.40;;;5.40;99.90;;;;;;5108213;28;20036;-78
2021/04/22 06:31:45;;;;;;;9.77;0.88;;;5.60;99.90;;;;;;5106950;28;20027;-77
2021/04/22 06:34:12;;;;;;;7.32;0.70;;;5.80;99.90;;;;;;5086764;28;20033;-77
2021/04/22 06:36:38;;;;;;;6.10;0.60;;;5.90;99.90;;;;;;5086712;28;20024;-77
2021/04/22 06:39:04;;;;;;;5.00;0.57;;;5.90;99.90;;;;;;5103424;28;20039;-78
2021/04/22 06:41:30;;;;;;;7.75;0.63;;;6.00;99.90;;;;;;5103265;28;20094;-78
2021/04/22 06:43:55;;;;;;;5.75;0.47;;;6.00;99.90;;;;;;5103956;28;20024;-77
2021/04/22 06:46:21;;;;;;;5.90;0.50;;;6.10;99.90;;;;;;5089890;28;20032;-78
2021/04/22 06:48:47;;;;;;;5.22;0.35;;;6.30;99.90;;;;;;5089594;28;20096;-77
2021/04/22 06:51:12;;;;;;;8.52;0.77;;;6.40;99.90;;;;;;5089648;28;20083;-77
2021/04/22 06:53:38;;;;;;;6.93;0.50;;;6.40;99.90;;;;;;5107349;28;20032;-78
2021/04/22 06:56:04;;;;;;;6.60;0.57;;;6.50;99.90;;;;;;5089332;28;20044;-78
2021/04/22 06:58:30;;;;;;;7.97;0.55;;;6.60;99.90;;;;;;5107498;28;20553;-78
2021/04/22 07:00:56;;;;;;;7.95;0.57;;;6.70;99.90;;;;;;5089225;28;20040;-78
2021/04/22 07:03:21;;;;;;;10.73;0.80;;;6.80;99.90;;;;;;5106101;28;20429;-78
2021/04/22 07:05:47;;;;;;;7.15;0.47;;;6.70;99.90;;;;;;5089189;28;20036;-78
2021/04/22 07:08:13;;;;;;;5.53;0.45;;;7.00;99.90;;;;;;5105908;28;20060;-78
2021/04/22 07:10:39;;;;;;;2.85;0.40;;;7.30;99.90;;;;;;5106050;28;20114;-78
2021/04/22 07:13:05;;;;;;;8.85;0.50;;;7.20;99.90;;;;;;5105968;28;20035;-78
2021/04/22 07:15:31;;;;;;;6.90;1.05;;;7.10;99.90;;;;;;5089336;28;20053;-79
2021/04/22 07:17:58;;;;;;;9.02;0.65;;;7.20;99.90;;;;;;5106027;28;20451;-78
2021/04/22 07:20:25;;;;;;;3.97;0.40;;;7.30;99.90;;;;;;5106268;28;20040;-78
2021/04/22 07:22:55;;;;;;;8.75;0.70;;;7.50;99.90;;;;;;5089001;28;20028;-78
2021/04/22 07:25:23;;;;;;;5.30;0.43;;;7.70;99.90;;;;;;5105704;28;20104;-79
2021/04/22 07:27:49;;;;;;;4.32;0.35;;;7.40;99.90;;;;;;5088627;28;20032;-79
2021/04/22 07:30:16;;;;;;;8.02;0.50;;;7.90;99.90;;;;;;5088356;28;20046;-79
2021/04/22 07:32:41;;;;;;;4.60;0.50;;;8.00;99.90;;;;;;5105571;28;20028;-78
2021/04/22 07:35:09;;;;;;;9.05;0.70;;;7.70;99.90;;;;;;5105518;28;20031;-79
2021/04/22 07:37:35;;;;;;;4.43;0.40;;;7.60;99.90;;;;;;5088791;28;20028;-79
2021/04/22 07:40:01;;;;;;;4.65;0.30;;;7.40;99.90;;;;;;5088511;28;20069;-79
2021/04/22 07:42:27;;;;;;;6.72;0.50;;;7.60;99.90;;;;;;5088443;28;20032;-79
2021/04/22 07:44:52;;;;;;;6.70;0.80;;;8.00;99.90;;;;;;5088457;28;20036;-79
2021/04/22 07:47:18;;;;;;;5.13;0.50;;;7.90;99.90;;;;;;5088075;28;20078;-79
2021/04/22 07:49:44;;;;;;;6.00;0.40;;;8.00;99.90;;;;;;5105182;28;20054;-79
2021/04/22 07:52:11;;;;;;;4.57;0.47;;;7.60;99.90;;;;;;5105278;28;20083;-79
2021/04/22 07:54:37;;;;;;;6.32;0.50;;;7.80;99.90;;;;;;5105304;28;20452;-79
2021/04/22 07:57:04;;;;;;;9.57;0.60;;;8.20;99.90;;;;;;5105235;28;20104;-79
2021/04/22 07:59:30;;;;;;;6.85;0.40;;;8.00;99.90;;;;;;5087944;28;20036;-79
2021/04/22 08:01:55;;;;;;;11.00;0.75;;;8.20;99.90;;;;;;5104870;28;20065;-79
2021/04/22 08:04:21;;;;;;;3.85;0.47;;;7.90;99.90;;;;;;5105239;28;20024;-79
2021/04/22 08:06:47;;;;;;;4.63;0.57;;;8.30;99.90;;;;;;5087631;28;20105;-79
2021/04/22 08:09:13;;;;;;;7.05;0.50;;;8.50;99.90;;;;;;5087678;28;20058;-79
2021/04/22 08:11:39;;;;;;;7.70;0.40;;;8.70;99.90;;;;;;5104670;28;20059;-79
2021/04/22 08:14:05;;;;;;;4.55;0.40;;;8.60;99.90;;;;;;5087818;28;20032;-78
2021/04/22 08:16:30;;;;;;;5.70;0.40;;;8.90;99.90;;;;;;5087627;28;20054;-79
2021/04/22 08:18:57;;;;;;;8.13;0.60;;;8.90;99.90;;;;;;5104478;28;20051;-79
2021/04/22 08:21:24;;;;;;;9.52;0.50;;;9.20;99.90;;;;;;5104293;28;20107;-79
2021/04/22 08:23:50;;;;;;;7.40;0.60;;;9.40;99.90;;;;;;5104472;28;20032;-79
2021/04/22 08:26:18;;;;;;;4.05;0.70;;;9.30;99.90;;;;;;5104582;28;20043;-79
2021/04/22 08:28:47;;;;;;;7.90;0.40;;;9.50;99.90;;;;;;5087520;28;20028;-78
2021/04/22 08:31:24;;;;;;;2.72;0.30;;;10.00;99.90;;;;;;5105770;28;20024;-79
2021/04/22 08:33:52;;;;;;;11.27;0.50;;;10.00;99.90;;;;;;5087032;28;20028;-78
2021/04/22 08:36:20;;;;;;;4.85;0.70;;;9.20;99.90;;;;;;5104060;28;20031;-78
2021/04/22 08:38:46;;;;;;;4.65;0.80;;;9.20;99.90;;;;;;5104403;28;20046;-79
2021/04/22 08:41:12;;;;;;;6.65;0.40;;;9.30;99.90;;;;;;5104085;28;20036;-79
2021/04/22 08:43:38;;;;;;;6.47;0.80;;;9.20;99.90;;;;;;5087280;28;20031;-79
2021/04/22 08:46:05;;;;;;;6.30;0.60;;;8.90;99.90;;;;;;5087313;28;20435;-78
2021/04/22 08:48:32;;;;;;;7.53;0.68;;;8.80;99.90;;;;;;5104026;28;20028;-79
2021/04/22 08:50:59;;;;;;;4.20;0.50;;;9.40;99.90;;;;;;5104058;28;20043;-79
2021/04/22 08:53:30;;;;;;;3.28;0.50;;;9.40;99.90;;;;;;5105365;28;20032;-79
2021/04/22 08:55:57;;;;;;;4.85;0.50;;;9.90;99.90;;;;;;5103915;28;20035;-79
2021/04/22 08:58:23;;;;;;;5.25;0.60;;;10.00;99.90;;;;;;5103640;28;20020;-79
2021/04/22 09:00:55;;;;;;;11.18;0.77;;;10.00;99.90;;;;;;5103729;28;20051;-79
2021/04/22 09:03:21;;;;;;;3.13;0.40;;;9.90;99.90;;;;;;5103839;28;20135;-79
2021/04/22 09:05:47;;;;;;;6.97;0.60;;;9.60;99.90;;;;;;5103830;28;20036;-79
2021/04/22 09:08:13;;;;;;;5.22;0.70;;;9.10;99.90;;;;;;5104134;28;20044;-79
2021/04/22 09:10:39;;;;;;;8.27;0.60;;;9.10;99.90;;;;;;5104077;28;20054;-79
2021/04/22 09:13:10;;;;;;;9.20;0.47;;;9.00;99.90;;;;;;5104047;28;20031;-79
2021/04/22 09:15:39;;;;;;;7.43;0.70;;;8.90;99.90;;;;;;5105284;28;20224;-79
2021/04/22 09:18:13;;;;;;;5.88;0.50;;;8.80;99.90;;;;;;5103891;28;20046;-79
2021/04/22 09:20:44;;;;;;;3.58;0.80;;;8.90;99.90;;;;;;5103749;28;20073;-79
2021/04/22 09:23:16;;;;;;;5.97;0.40;;;9.00;99.90;;;;;;5104026;28;20039;-79
2021/04/22 09:25:42;;;;;;;4.85;0.50;;;9.20;99.90;;;;;;5103590;28;20036;-79
2021/04/22 09:28:09;;;;;;;5.35;0.70;;;9.50;99.90;;;;;;5103992;28;20058;-79
2021/04/22 09:30:40;;;;;;;7.40;0.70;;;9.40;99.90;;;;;;5103509;28;20040;-79
2021/04/22 09:33:06;;;;;;;6.10;0.70;;;9.60;99.90;;;;;;5103845;28;20028;-79
2021/04/22 09:35:31;;;;;;;7.95;0.70;;;9.20;99.90;;;;;;5103882;28;20490;-78
2021/04/22 09:37:58;;;;;;;3.47;0.75;;;9.60;99.90;;;;;;5087001;28;20032;-79
2021/04/22 09:40:32;;;;;;;4.28;0.60;;;9.60;99.90;;;;;;5103606;28;20039;-79
2021/04/22 09:43:00;;;;;;;4.95;0.63;;;9.80;99.90;;;;;;5086905;28;20056;-79
2021/04/22 09:45:29;;;;;;;5.05;0.40;;;9.90;99.90;;;;;;5103621;28;20032;-80
2021/04/22 09:47:55;;;;;;;4.88;0.60;;;11.10;99.90;;;;;;5103618;28;20387;-80
2021/04/22 09:50:24;;;;;;;5.53;0.50;;;11.60;99.90;;;;;;5103738;28;20135;-80
2021/04/22 09:52:54;;;;;;;6.90;0.50;;;11.00;99.90;;;;;;5103813;28;20054;-80
2021/04/22 09:55:22;;;;;;;7.82;0.80;;;10.30;99.90;;;;;;5103624;28;20059;-80
2021/04/22 09:57:48;;;;;;;4.78;0.50;;;10.70;99.90;;;;;;5103643;28;20032;-80
2021/04/22 10:00:28;;;;;;;6.40;0.50;;;10.40;99.90;;;;;;5103341;28;20390;-80
2021/04/22 10:02:59;;;;;;;7.85;0.55;;;11.10;99.90;;;;;;5103789;28;20043;-80
2021/04/22 10:05:54;;;;;;;7.50;0.68;;;11.00;99.90;;;;;;5103432;28;20507;-80
2021/04/22 10:08:20;;;;;;;7.93;1.00;;;10.70;99.90;;;;;;5028813;28;20117;-80
2021/04/22 10:11:07;;;;;;;5.03;0.95;;;10.60;99.90;;;;;;5030625;28;20045;-80
2021/04/22 10:13:49;;;;;;;7.65;0.70;;;10.30;99.90;;;;;;5048854;28;20040;-80
2021/04/22 10:16:15;;;;;;;5.40;0.50;;;10.70;99.90;;;;;;5048926;28;20033;-80
2021/04/22 10:18:44;;;;;;;3.47;0.40;;;11.70;99.90;;;;;;5065382;28;20044;-80
2021/04/22 10:21:11;;;;;;;10.13;0.70;;;11.50;99.90;;;;;;5048692;28;20204;-81
2021/04/22 10:23:37;;;;;;;3.58;0.50;;;10.90;99.90;;;;;;5048808;28;20095;-81
2021/04/22 10:26:03;;;;;;;2.92;0.52;;;10.90;99.90;;;;;;5031921;28;20543;-80
2021/04/22 10:28:30;;;;;;;6.95;0.50;;;10.60;99.90;;;;;;5031982;28;20488;-80
2021/04/22 10:30:57;;;;;;;4.57;0.35;;;11.10;99.90;;;;;;5031520;28;20524;-80
2021/04/22 10:33:24;;;;;;;7.07;1.08;;;11.30;99.90;;;;;;5028537;28;20066;-80
2021/04/22 10:35:51;;;;;;;5.68;0.60;;;11.50;99.90;;;;;;5044618;28;20484;-80
2021/04/22 10:38:19;;;;;;;6.50;0.57;;;11.40;99.90;;;;;;5045106;28;20048;-80
2021/04/22 10:40:48;;;;;;;2.55;0.50;;;11.50;99.90;;;;;;5044907;28;20151;-80
2021/04/22 10:43:25;;;;;;;5.47;0.60;;;12.20;99.90;;;;;;5040159;28;20043;-80
2021/04/22 10:45:53;;;;;;;4.40;0.98;;;12.10;99.90;;;;;;5075477;28;20063;-80
2021/04/22 10:48:19;;;;;;;4.10;0.50;;;12.10;99.90;;;;;;5069472;28;20028;-80
2021/04/22 10:50:52;;;;;;;3.08;0.30;;;12.00;99.90;;;;;;5087170;28;20048;-80
2021/04/22 10:53:21;;;;;;;3.95;0.60;;;12.40;99.00;;;;;;5069323;28;20020;-81
2021/04/22 10:55:50;;;;;;;4.72;0.93;;;12.00;99.90;;;;;;5056683;28;20052;-80
2021/04/22 10:58:24;;;;;;;3.38;0.68;;;12.10;99.90;;;;;;5081101;28;20131;-80
2021/04/22 11:00:59;;;;;;;3.05;0.40;;;11.80;99.90;;;;;;5116845;28;20047;-80
2021/04/22 11:03:32;;;;;;;6.63;0.68;;;12.10;99.90;;;;;;5100129;28;20023;-80
2021/04/22 11:06:08;;;;;;;6.32;0.50;;;12.10;99.40;;;;;;5086312;28;20395;-80
2021/04/22 11:08:39;;;;;;;3.90;0.60;;;12.30;98.40;;;;;;5093464;28;20036;-80
2021/04/22 11:11:25;;;;;;;9.15;0.70;;;12.50;99.00;;;;;;5084151;28;20032;-80
2021/04/22 11:14:04;;;;;;;4.43;0.60;;;11.60;98.20;;;;;;5104394;28;20091;-80
2021/04/22 11:16:33;;;;;;;4.55;0.90;;;12.50;99.90;;;;;;5115353;28;20046;-79
2021/04/22 11:18:59;;;;;;;5.22;0.47;;;12.70;98.80;;;;;;5116968;28;20043;-80
2021/04/22 11:21:32;;;;;;;2.70;0.98;;;13.00;97.10;;;;;;5095392;28;20040;-80
2021/04/22 11:24:01;;;;;;;5.78;0.55;;;13.30;98.60;;;;;;5111263;28;20466;-80
2021/04/22 11:26:32;;;;;;;6.35;0.50;;;12.70;97.40;;;;;;5098518;28;20059;-80
2021/04/22 11:29:09;;;;;;;4.00;0.52;;;12.80;97.00;;;;;;5100114;28;20032;-80
2021/04/22 11:31:52;;;;;;;4.18;0.70;;;12.90;97.00;;;;;;5083252;28;20535;-80
2021/04/22 11:34:29;;;;;;;4.75;0.50;;;12.40;97.30;;;;;;5096167;28;20043;-79
2021/04/22 11:36:55;;;;;;;4.10;0.77;;;13.00;96.20;;;;;;5081033;28;20040;-80
2021/04/22 11:39:35;;;;;;;5.28;0.50;;;12.90;95.80;;;;;;5093781;28;20036;-80
2021/04/22 11:42:02;;;;;;;3.97;0.50;;;12.80;96.20;;;;;;5071771;28;20057;-79
2021/04/22 11:44:40;;;;;;;5.05;0.60;;;12.10;96.10;;;;;;5090868;28;20122;-78
2021/04/22 11:47:29;;;;;;;3.97;0.60;;;12.30;96.60;;;;;;5092572;28;20061;-79
2021/04/22 11:50:09;;;;;;;2.67;0.40;;;12.40;96.50;;;;;;5106397;28;20525;-80
2021/04/22 11:52:56;;;;;;;6.43;0.80;;;13.70;95.20;;;;;;5070866;28;20020;-79
2021/04/22 11:55:29;;;;;;;7.00;0.60;;;13.50;94.60;;;;;;5087750;28;20078;-79
2021/04/22 11:58:16;;;;;;;4.10;0.90;;;13.30;95.10;;;;;;5087374;28;20130;-79
2021/04/22 12:00:45;;;;;;;1.92;0.50;;;12.80;94.80;;;;;;5083706;28;20048;-79
2021/04/22 12:03:14;;;;;;;5.30;0.70;;;13.50;94.80;;;;;;5087567;28;20032;-79
2021/04/22 12:08:46;;;;;;;4.30;0.60;;;12.50;96.80;;;;;;5003000;28;20056;-79
2021/04/22 12:11:19;;;;;;;;;;;12.50;94.80;;;;;;5005576;28;20030;-79
2021/04/22 12:13:46;;;;;;;2.67;0.45;;;12.50;96.90;;;;;;5005524;28;19917;-79
2021/04/22 12:16:12;;;;;;;2.42;0.40;;;12.80;95.20;;;;;;5005528;28;20041;-80
2021/04/22 12:18:40;;;;;;;3.17;0.60;;;13.10;95.60;;;;;;4989715;28;20030;-79
2021/04/22 12:21:19;;;;;;;6.83;0.73;;;12.60;95.70;;;;;;5005382;28;20034;-80
2021/04/22 12:23:47;;;;;;;3.53;0.40;;;12.90;95.80;;;;;;5005576;28;20293;-78
2021/04/22 12:26:25;;;;;;;4.53;0.50;;;13.40;95.10;;;;;;4990298;28;20039;-79
2021/04/22 12:29:04;;;;;;;3.22;0.30;;;13.60;94.30;;;;;;5007400;28;20479;-78
2021/04/22 12:31:34;;;;;;;3.67;0.70;;;13.60;95.50;;;;;;5005235;28;20061;-78
2021/04/22 12:34:17;;;;;;;3.58;0.68;;;13.40;95.90;;;;;;4987880;28;20042;-79
2021/04/22 12:37:02;;;;;;;4.13;0.60;;;12.80;94.50;;;;;;5005937;28;20136;-78
2021/04/22 12:39:33;;;;;;;3.45;0.40;;;12.90;93.40;;;;;;4988439;28;20030;-79
2021/04/22 12:42:15;;;;;;;5.18;0.60;;;13.10;94.10;;;;;;5004548;28;20034;-78
2021/04/22 12:45:04;;;;;;;5.13;0.60;;;13.00;93.80;;;;;;4988440;28;20056;-79
2021/04/22 12:47:45;;;;;;;4.80;1.05;;;12.90;94.70;;;;;;5005926;28;20027;-78
2021/04/22 12:50:15;;;;;;;3.40;0.85;;;12.50;94.30;;;;;;4988465;28;20053;-78
2021/04/22 12:52:42;;;;;;;2.42;0.30;;;13.30;95.30;;;;;;5005676;28;20035;-79
2021/04/22 12:55:12;;;;;;;5.30;0.50;;;13.60;93.80;;;;;;4988346;28;20105;-79
2021/04/22 12:57:38;;;;;;;;;;;13.90;94.10;;;;;;4988797;28;20293;-80
2021/04/22 13:00:12;;;;;;;4.18;0.50;;;14.60;93.90;;;;;;5004459;28;20164;-79
2021/04/22 13:02:38;;;;;;;4.70;0.85;;;13.70;93.10;;;;;;5004238;28;20473;-79